Time;durP1;ratioP1;P1;durP2;ratioP2;P2;SDS_P1;SDS_P2;PMS_P1;PMS_P2;Temp;Humidity;BMP_temperature;BMP_pressure;BME280_temperature;BME280_humidity;BME280_pressure;Samples;Min_cycle;Max_cycle;Signal;HPM_P1;HPM_P2
2022/05/08 00:01:35;;;;;;;7.63;6.03;;;17.00;99.90;;;17.49;nan;101165.16;4932752;29;20629;-66
2022/05/08 00:04:03;;;;;;;6.40;5.80;;;16.90;99.90;;;17.47;nan;101158.34;4931476;29;20637;-66
2022/05/08 00:06:30;;;;;;;6.50;5.87;;;16.90;99.90;;;17.43;nan;101164.88;4933450;29;20629;-66
2022/05/08 00:08:58;;;;;;;7.10;6.40;;;16.90;99.90;;;17.45;nan;101160.28;4933185;29;21185;-66
2022/05/08 00:11:25;;;;;;;7.03;5.80;;;16.90;99.90;;;17.47;nan;101163.63;4932836;29;20642;-66
2022/05/08 00:13:52;;;;;;;6.10;5.10;;;16.90;99.90;;;17.45;nan;101168.22;4929020;29;20637;-64
2022/05/08 00:16:19;;;;;;;7.40;6.60;;;16.90;99.90;;;17.44;nan;101158.66;4932927;29;20629;-67
2022/05/08 00:18:46;;;;;;;6.87;6.17;;;16.90;99.90;;;17.34;nan;101155.16;4936206;29;20675;-67
2022/05/08 00:21:13;;;;;;;7.00;6.10;;;16.80;99.90;;;17.29;nan;101160.88;4936190;29;20625;-66
2022/05/08 00:23:39;;;;;;;8.67;6.70;;;16.70;99.90;;;17.29;nan;101160.06;4935009;29;20664;-66
2022/05/08 00:26:08;;;;;;;7.50;5.93;;;16.70;99.90;;;17.26;nan;101160.31;4931986;29;20634;-66
2022/05/08 00:28:36;;;;;;;8.23;6.77;;;16.70;99.90;;;17.21;nan;101158.09;4917073;29;20625;-66
2022/05/08 00:31:03;;;;;;;7.93;5.40;;;16.60;99.90;;;17.12;nan;101152.84;4917406;29;20660;-65
2022/05/08 00:33:31;;;;;;;7.53;6.23;;;16.60;99.90;;;17.07;nan;101158.53;4901066;29;20630;-65
2022/05/08 00:35:58;;;;;;;10.77;6.40;;;16.50;99.90;;;17.12;nan;101158.13;4935963;29;20691;-67
2022/05/08 00:38:25;;;;;;;8.77;7.87;;;16.60;99.90;;;17.04;nan;101150.88;4936471;29;21185;-66
2022/05/08 00:40:52;;;;;;;6.90;6.27;;;16.50;99.90;;;17.02;nan;101166.84;4936987;29;20645;-66
2022/05/08 00:43:35;;;;;;;7.13;6.03;;;16.50;99.90;;;17.03;nan;101155.34;4935905;29;20636;-67
2022/05/08 00:46:11;;;;;;;9.70;7.10;;;16.50;99.90;;;17.01;nan;101157.28;4936406;29;20621;-67
2022/05/08 00:48:39;;;;;;;7.17;6.47;;;16.50;99.90;;;16.98;nan;101156.72;4918357;29;20632;-64
2022/05/08 00:51:09;;;;;;;9.37;6.77;;;16.40;99.90;;;16.93;nan;101159.78;4936075;29;20669;-67
2022/05/08 00:53:41;;;;;;;10.60;7.50;;;16.40;99.90;;;16.96;nan;101150.75;4935363;29;21203;-67
2022/05/08 00:56:11;;;;;;;9.20;7.43;;;16.40;99.90;;;16.88;nan;101155.91;4936426;29;20665;-67
2022/05/08 00:58:40;;;;;;;8.93;6.43;;;16.30;99.90;;;16.80;nan;101151.28;4935822;29;21043;-66
2022/05/08 01:01:09;;;;;;;8.77;7.43;;;16.20;99.90;;;16.86;nan;101155.19;4936742;29;20665;-66
2022/05/08 01:03:38;;;;;;;12.03;6.80;;;16.20;99.90;;;16.84;nan;101147.44;4935182;29;21029;-67
2022/05/08 01:06:14;;;;;;;9.20;7.17;;;16.30;99.90;;;16.84;nan;101149.25;4934939;29;20652;-67
2022/05/08 01:08:44;;;;;;;7.93;6.90;;;16.30;99.90;;;16.80;nan;101153.94;4917979;29;21188;-66
2022/05/08 01:11:12;;;;;;;8.67;6.97;;;16.20;99.90;;;16.85;nan;101146.47;4935266;29;20637;-66
2022/05/08 01:13:41;;;;;;;10.93;7.80;;;16.30;99.90;;;16.88;nan;101156.72;4936052;29;21049;-66
2022/05/08 01:16:20;;;;;;;11.93;7.50;;;16.30;99.90;;;16.85;nan;101151.72;4935451;29;20676;-66
2022/05/08 01:18:49;;;;;;;8.53;6.77;;;16.30;99.90;;;16.84;nan;101155.34;4935705;29;20637;-66
2022/05/08 01:21:21;;;;;;;9.33;7.33;;;16.30;99.90;;;16.86;nan;101158.69;4934199;29;20636;-67
2022/05/08 01:23:49;;;;;;;8.80;6.97;;;16.30;99.90;;;16.76;nan;101152.53;4935639;29;21023;-68
2022/05/08 01:26:22;;;;;;;10.17;7.60;;;16.20;99.90;;;16.76;nan;101152.53;4935114;29;20692;-66
2022/05/08 01:28:49;;;;;;;9.97;8.33;;;16.20;99.90;;;16.77;nan;101146.31;4934959;29;20679;-67
2022/05/08 01:31:16;;;;;;;10.70;7.80;;;16.20;99.90;;;16.84;nan;101147.44;4934749;29;20641;-66
2022/05/08 01:33:43;;;;;;;13.33;8.70;;;16.30;99.90;;;16.77;nan;101143.69;4937354;29;20644;-67
2022/05/08 01:36:10;;;;;;;10.43;8.50;;;16.30;99.90;;;16.70;nan;101147.00;4920026;29;20712;-67
2022/05/08 01:38:37;;;;;;;11.80;8.77;;;16.20;99.90;;;16.71;nan;101151.31;4934144;29;20637;-66
2022/05/08 01:41:04;;;;;;;13.10;8.90;;;16.20;99.90;;;16.73;nan;101152.84;4934453;29;20676;-66
2022/05/08 01:43:34;;;;;;;9.03;8.07;;;16.20;99.90;;;16.69;nan;101146.19;4934625;29;20703;-66
2022/05/08 01:46:05;;;;;;;11.90;8.27;;;16.20;99.90;;;16.71;nan;101152.16;4966667;23;20685;-61
2022/05/08 01:48:33;;;;;;;10.63;8.63;;;16.20;99.90;;;16.69;nan;101150.59;4955377;28;20640;-62
2022/05/08 01:51:02;;;;;;;11.83;8.50;;;16.10;99.90;;;16.66;nan;101146.44;4956171;28;20627;-61
2022/05/08 01:53:32;;;;;;;12.20;8.83;;;16.10;99.90;;;16.60;nan;101154.91;4971907;28;20632;-61
2022/05/08 01:56:02;;;;;;;9.73;7.30;;;16.10;99.90;;;16.64;nan;101161.56;4973408;28;21063;-62
2022/05/08 01:58:30;;;;;;;11.30;8.33;;;16.10;99.90;;;16.68;nan;101156.84;4942659;28;20631;-62
2022/05/08 02:01:02;;;;;;;10.90;8.50;;;16.10;99.90;;;16.61;nan;101159.19;4962133;28;21223;-61
2022/05/08 02:03:29;;;;;;;10.03;7.90;;;16.10;99.90;;;16.64;nan;101160.72;4954924;28;20624;-63
2022/05/08 02:05:57;;;;;;;11.17;7.47;;;16.10;99.90;;;16.58;nan;101159.47;4952665;28;20664;-62
2022/05/08 02:08:24;;;;;;;8.20;7.40;;;16.00;99.90;;;16.45;nan;101156.22;4972690;28;20623;-62
2022/05/08 02:10:50;;;;;;;10.80;8.23;;;15.90;99.90;;;16.51;nan;101153.06;4971997;28;20639;-62
2022/05/08 02:13:17;;;;;;;21.07;8.30;;;15.90;99.90;;;16.50;nan;101154.06;4962004;28;20632;-62
2022/05/08 02:15:44;;;;;;;9.37;7.50;;;16.00;99.90;;;16.46;nan;101155.22;4953157;28;20701;-62
2022/05/08 02:18:11;;;;;;;11.40;7.57;;;16.00;99.90;;;16.43;nan;101155.53;4954732;29;21005;-62
2022/05/08 02:20:41;;;;;;;10.53;8.20;;;15.90;99.90;;;16.38;nan;101156.88;4963574;28;20638;-62
2022/05/08 02:23:09;;;;;;;11.27;8.30;;;15.90;99.90;;;16.35;nan;101158.00;4937713;29;20620;-63
2022/05/08 02:25:37;;;;;;;9.00;7.97;;;15.80;99.90;;;16.34;nan;101153.69;4954959;28;20670;-61
2022/05/08 02:28:05;;;;;;;11.70;8.97;;;15.80;99.90;;;16.26;nan;101154.38;4954054;29;20625;-62
2022/05/08 02:30:32;;;;;;;8.17;5.60;;;15.70;99.90;;;16.26;nan;101153.53;4935585;29;21069;-62
2022/05/08 02:33:00;;;;;;;11.23;8.47;;;15.70;99.90;;;16.26;nan;101157.00;4935585;29;20636;-62
2022/05/08 02:35:27;;;;;;;11.63;9.00;;;15.70;99.90;;;16.26;nan;101158.78;4953626;29;20683;-62
2022/05/08 02:37:56;;;;;;;16.23;8.57;;;15.70;99.90;;;16.25;nan;101146.59;4945970;28;20650;-62
2022/05/08 02:40:24;;;;;;;13.97;8.53;;;15.80;99.90;;;16.19;nan;101147.97;4973017;28;20615;-62
2022/05/08 02:42:52;;;;;;;11.30;8.50;;;15.70;99.90;;;16.20;nan;101160.19;4972440;28;20631;-62
2022/05/08 02:45:20;;;;;;;8.87;7.60;;;15.70;99.90;;;16.17;nan;101159.59;4972780;28;20678;-62
2022/05/08 02:47:47;;;;;;;12.43;8.63;;;15.60;99.90;;;16.20;nan;101156.69;4952810;28;20647;-62
2022/05/08 02:50:15;;;;;;;13.10;7.40;;;15.70;99.90;;;16.09;nan;101162.06;4931981;29;20886;-62
2022/05/08 02:52:43;;;;;;;11.37;7.93;;;15.60;99.90;;;16.05;nan;101160.66;4953072;29;20612;-62
2022/05/08 03:00:45;;;;;;;11.20;8.23;;;15.50;99.90;;;16.01;nan;101164.53;4972150;28;21234;-62
2022/05/08 03:03:13;;;;;;;10.70;8.47;;;15.50;99.90;;;15.84;nan;101159.88;4941781;29;20648;-62
2022/05/08 03:05:47;;;;;;;11.93;8.07;;;15.40;99.90;;;15.82;nan;101164.44;4952064;28;21224;-62
2022/05/08 03:08:17;;;;;;;8.53;7.23;;;15.30;99.90;;;15.81;nan;101165.38;4952746;28;20636;-62
2022/05/08 03:13:42;;;;;;;13.40;9.13;;;15.30;99.90;;;15.73;nan;101165.22;4958728;28;20730;-62
2022/05/08 03:16:11;;;;;;;12.77;9.33;;;15.30;99.90;;;15.78;nan;101163.03;4946240;29;20676;-62
2022/05/08 03:18:40;;;;;;;11.30;8.10;;;15.20;99.90;;;15.79;nan;101167.31;4951814;29;21240;-62
2022/05/08 03:21:09;;;;;;;11.90;9.10;;;15.30;99.90;;;15.77;nan;101169.25;4953069;28;20799;-61
2022/05/08 03:23:36;;;;;;;11.77;8.50;;;15.30;99.90;;;15.66;nan;101169.31;4956932;28;21007;-63
2022/05/08 03:26:06;;;;;;;11.30;9.17;;;15.10;99.90;;;15.65;nan;101167.66;4953437;28;21243;-61
2022/05/08 03:28:35;;;;;;;12.63;9.13;;;15.20;99.90;;;15.62;nan;101168.75;4952513;28;20651;-62
2022/05/08 03:31:02;;;;;;;9.53;7.50;;;15.20;99.90;;;15.54;nan;101161.50;4953277;29;20627;-59
2022/05/08 03:33:32;;;;;;;15.50;8.47;;;15.10;99.90;;;15.49;nan;101170.75;4953022;29;20627;-62
2022/05/08 03:36:00;;;;;;;11.93;9.17;;;15.00;99.90;;;15.53;nan;101172.16;4952238;29;20682;-61
2022/05/08 03:38:30;;;;;;;13.77;8.97;;;15.00;99.90;;;15.50;nan;101164.53;4951285;29;20631;-63
2022/05/08 03:40:57;;;;;;;11.90;8.50;;;15.00;99.90;;;15.44;nan;101173.75;4954410;28;20642;-62
2022/05/08 03:43:24;;;;;;;11.00;8.50;;;14.90;99.90;;;15.36;nan;101170.91;4952136;28;21219;-63
2022/05/08 03:45:51;;;;;;;10.83;8.20;;;14.90;99.90;;;15.34;nan;101172.00;4951128;29;21048;-62
2022/05/08 03:48:20;;;;;;;14.90;10.63;;;14.80;99.90;;;15.37;nan;101175.22;4950301;28;21191;-63
2022/05/08 03:50:47;;;;;;;11.40;9.30;;;14.80;99.90;;;15.37;nan;101171.75;4952750;29;20628;-63
2022/05/08 03:53:14;;;;;;;13.10;9.03;;;14.90;99.90;;;15.30;nan;101176.69;4951321;28;20624;-62
2022/05/08 03:55:42;;;;;;;13.37;9.93;;;14.80;99.90;;;15.24;nan;101168.47;4958369;28;20677;-63
2022/05/08 03:58:09;;;;;;;13.43;10.63;;;14.80;99.90;;;15.21;nan;101182.69;4953933;28;20640;-62
2022/05/08 04:00:36;;;;;;;13.20;9.10;;;14.80;99.90;;;15.25;nan;101178.84;4936126;28;20639;-62
2022/05/08 04:03:03;;;;;;;13.70;8.77;;;14.80;99.90;;;15.24;nan;101176.34;4934774;29;20683;-62
2022/05/08 04:05:30;;;;;;;14.77;10.40;;;14.80;99.90;;;14.98;nan;101181.13;4954656;28;20663;-63
2022/05/08 04:07:58;;;;;;;12.80;8.80;;;14.60;99.90;;;15.01;nan;101188.75;4963595;28;21239;-62
2022/05/08 04:10:25;;;;;;;13.07;7.83;;;14.60;99.90;;;15.00;nan;101180.97;4950856;29;20632;-62
2022/05/08 04:12:52;;;;;;;13.43;10.20;;;14.50;99.90;;;15.08;nan;101183.81;4969091;28;20647;-63
2022/05/08 04:18:05;;;;;;;13.07;9.73;;;14.60;99.90;;;15.20;nan;101193.34;4951711;29;20626;-62
2022/05/08 04:20:32;;;;;;;11.37;8.70;;;14.80;99.90;;;15.15;nan;101191.09;4950813;28;20695;-62
2022/05/08 04:25:44;;;;;;;13.47;9.77;;;14.90;99.90;;;15.34;nan;101207.00;4952624;28;20662;-62
2022/05/08 04:28:11;;;;;;;15.90;10.23;;;15.00;99.90;;;15.39;nan;101201.38;4958888;28;20639;-63
2022/05/08 04:30:38;;;;;;;15.30;9.27;;;15.00;99.90;;;15.41;nan;101209.97;4953336;28;21203;-63
2022/05/08 04:33:05;;;;;;;13.70;10.30;;;15.00;99.90;;;15.36;nan;101204.25;4970759;28;20623;-60
2022/05/08 04:35:32;;;;;;;13.13;9.30;;;15.00;99.90;;;15.33;nan;101212.41;4965133;28;20683;-63
2022/05/08 04:37:59;;;;;;;11.20;8.23;;;14.90;99.90;;;15.34;nan;101211.44;4952067;29;20616;-61
2022/05/08 04:40:26;;;;;;;12.20;9.70;;;14.90;99.90;;;15.28;nan;101211.94;4951844;29;20624;-62
2022/05/08 04:42:53;;;;;;;12.20;10.57;;;14.90;99.90;;;15.39;nan;101218.00;4952859;29;20624;-63
2022/05/08 04:45:20;;;;;;;14.30;9.47;;;14.90;99.90;;;15.42;nan;101224.75;4950524;28;20664;-62
2022/05/08 04:47:51;;;;;;;13.30;11.20;;;15.00;99.90;;;15.41;nan;101223.13;4935192;28;21048;-62
2022/05/08 04:50:18;;;;;;;15.10;9.53;;;15.00;99.90;;;15.23;nan;101219.34;4951111;29;20695;-63
2022/05/08 04:52:45;;;;;;;14.03;10.47;;;14.80;99.90;;;15.31;nan;101219.59;4951736;29;21192;-62
2022/05/08 04:55:12;;;;;;;15.33;10.90;;;14.90;99.90;;;15.33;nan;101228.19;4951994;29;21176;-63
2022/05/08 04:57:39;;;;;;;14.87;10.73;;;14.90;99.90;;;15.30;nan;101231.88;4951978;28;20759;-62
2022/05/08 05:00:07;;;;;;;14.30;9.70;;;14.90;99.90;;;15.36;nan;101226.13;4952605;29;20659;-62
2022/05/08 05:02:33;;;;;;;11.60;8.97;;;15.00;99.90;;;15.38;nan;101239.13;4950270;28;20640;-62
2022/05/08 05:05:01;;;;;;;12.33;8.93;;;15.00;99.90;;;15.45;nan;101233.28;4953016;28;20705;-63
2022/05/08 05:07:28;;;;;;;12.10;9.70;;;15.10;99.90;;;15.48;nan;101230.38;4954878;29;20636;-62
2022/05/08 05:09:55;;;;;;;12.93;10.43;;;15.10;99.90;;;15.42;nan;101238.75;4955392;28;20627;-62
2022/05/08 05:12:23;;;;;;;12.70;9.93;;;15.10;99.90;;;15.48;nan;101240.91;4960315;28;20996;-62
2022/05/08 05:14:51;;;;;;;13.97;9.87;;;15.10;99.90;;;15.43;nan;101229.94;4938686;29;20624;-62
2022/05/08 05:17:18;;;;;;;12.87;8.83;;;15.10;99.90;;;15.46;nan;101237.56;4954891;28;20672;-63
2022/05/08 05:19:45;;;;;;;15.83;9.50;;;15.10;99.90;;;15.51;nan;101245.94;4954475;28;20640;-62
2022/05/08 05:22:12;;;;;;;11.93;8.83;;;15.10;99.90;;;15.49;nan;101241.75;4953393;28;21057;-62
2022/05/08 05:24:39;;;;;;;12.07;9.23;;;15.10;99.90;;;15.48;nan;101248.00;4954499;29;20620;-62
2022/05/08 05:27:05;;;;;;;15.00;10.37;;;15.10;99.90;;;15.61;nan;101250.44;4954605;28;20718;-62
2022/05/08 05:29:32;;;;;;;13.57;9.60;;;15.20;99.90;;;15.58;nan;101245.41;4954943;29;21266;-63
2022/05/08 05:31:59;;;;;;;11.90;9.03;;;15.10;99.90;;;15.72;nan;101248.56;4954693;29;20619;-62
2022/05/08 05:34:26;;;;;;;14.37;9.83;;;15.30;99.90;;;15.78;nan;101247.22;4953954;28;20644;-62
2022/05/08 05:36:53;;;;;;;11.67;8.60;;;15.30;99.90;;;15.82;nan;101251.28;4967829;28;20679;-62
2022/05/08 05:39:21;;;;;;;12.53;10.00;;;15.40;99.90;;;15.93;nan;101256.47;4973502;28;20626;-62
2022/05/08 05:41:48;;;;;;;10.20;8.10;;;15.50;99.90;;;16.34;nan;101251.13;4956870;28;20638;-63
2022/05/08 05:44:14;;;;;;;14.23;9.43;;;15.90;99.90;;;16.53;nan;101256.50;4954699;28;21191;-62
2022/05/08 05:49:27;;;;;;;11.00;9.50;;;16.30;99.90;;;17.27;nan;101260.41;4950673;28;20646;-63
2022/05/08 05:51:56;;;;;;;13.00;8.73;;;16.90;99.90;;;17.80;nan;101266.94;4958617;28;20654;-63
2022/05/08 05:54:26;;;;;;;10.00;6.63;;;17.40;99.90;;;18.43;nan;101272.47;4953419;28;20662;-62
2022/05/08 05:56:53;;;;;;;9.43;7.90;;;18.10;99.90;;;18.85;nan;101265.75;4961369;28;20675;-63
2022/05/08 05:59:20;;;;;;;10.93;8.73;;;18.60;99.90;;;18.88;nan;101268.13;4973254;28;21271;-63
2022/05/08 06:02:05;;;;;;;12.00;8.10;;;18.60;99.90;;;19.28;nan;101267.69;4963524;28;20640;-62
2022/05/08 06:04:33;;;;;;;13.40;9.20;;;19.00;99.90;;;19.60;nan;101273.31;4953336;29;20616;-63
2022/05/08 06:07:00;;;;;;;12.55;9.40;;;19.40;99.90;;;19.52;nan;101277.72;4933718;28;24489;-62
2022/05/08 06:09:27;;;;;;;13.60;9.10;;;19.40;99.90;;;20.03;nan;101275.97;4952031;29;24442;-63
2022/05/08 06:11:54;;;;;;;11.20;8.23;;;19.80;99.90;;;20.12;nan;101275.00;4954084;29;20219;-62
2022/05/08 06:14:21;;;;;;;11.10;9.30;;;19.90;99.90;;;20.29;nan;101277.81;4959702;28;20642;-63
2022/05/08 06:16:49;;;;;;;10.20;8.60;;;20.00;99.90;;;20.80;nan;101267.94;4914579;29;20799;-63
2022/05/08 06:19:16;;;;;;;10.67;7.30;;;20.60;99.90;;;;;;4950193;28;20725;-63
2022/05/08 06:21:42;;;;;;;9.00;8.10;;;21.30;99.70;;;;;;4953215;28;20738;-63
2022/05/08 06:24:09;;;;;;;11.90;9.20;;;21.90;98.20;;;;;;4954659;29;20620;-63
2022/05/08 06:26:36;;;;;;;9.70;8.33;;;22.40;96.30;;;;;;4954060;29;20628;-62
2022/05/08 06:29:02;;;;;;;9.80;8.27;;;22.80;95.10;;;;;;4957329;28;20644;-62
2022/05/08 06:31:30;;;;;;;10.10;8.20;;;23.10;94.00;;;;;;4954289;29;20960;-63
2022/05/08 06:33:57;;;;;;;9.00;7.67;;;23.40;92.80;;;;;;4952476;28;20616;-62
2022/05/08 06:36:26;;;;;;;10.60;7.87;;;23.70;91.60;;;;;;4952888;28;20671;-63
2022/05/08 06:38:53;;;;;;;9.60;8.17;;;24.50;90.10;;;;;;4934379;29;21194;-62
2022/05/08 06:41:20;;;;;;;7.33;6.60;;;24.40;88.40;;;;;;4972813;28;20641;-63
2022/05/08 06:43:47;;;;;;;10.93;8.53;;;25.10;85.30;;;;;;4968850;28;20723;-63
2022/05/08 06:46:13;;;;;;;8.83;8.03;;;25.20;83.30;;;;;;4954195;28;20658;-62
2022/05/08 06:48:40;;;;;;;7.23;6.53;;;25.10;82.10;;;;;;4952526;28;21182;-61
2022/05/08 06:51:07;;;;;;;8.73;7.90;;;25.90;79.80;;;;;;4951523;28;20739;-61
2022/05/08 06:53:34;;;;;;;8.70;7.90;;;26.40;76.60;;;;;;4952389;29;20663;-63
2022/05/08 06:56:01;;;;;;;7.77;7.07;;;26.30;75.40;;;;;;4953040;28;20687;-62
2022/05/08 06:58:28;;;;;;;9.40;6.80;;;26.60;73.80;;;;;;4957586;28;21266;-63
2022/05/08 07:03:41;;;;;;;8.50;7.70;;;27.50;70.40;;;27.30;nan;101315.44;4960828;28;24448;-63
2022/05/08 07:06:08;;;;;;;6.67;5.97;;;27.30;69.80;;;28.93;nan;101320.72;4954130;28;20228;-63
2022/05/08 07:08:35;;;;;;;9.93;7.50;;;28.70;67.20;;;29.23;nan;101315.63;4971480;28;20643;-63
2022/05/08 07:11:02;;;;;;;8.40;6.60;;;29.10;65.00;;;29.58;nan;101324.91;4971479;28;20649;-63
2022/05/08 07:13:32;;;;;;;;;;;29.40;63.20;;;30.25;nan;101329.56;4955265;28;21058;-63
2022/05/08 07:16:00;;;;;;;8.02;7.20;;;30.30;60.90;;;30.31;nan;101323.31;4959371;28;20797;-63
2022/05/08 07:18:27;;;;;;;7.97;7.00;;;30.40;59.20;;;31.39;nan;101314.28;4950673;29;24418;-63
2022/05/08 07:20:55;;;;;;;7.63;5.97;;;31.50;57.80;;;30.98;nan;101326.91;4955093;28;24488;-63
2022/05/08 07:23:22;;;;;;;8.00;7.30;;;31.10;56.40;;;32.01;nan;101322.91;4971269;28;20200;-65
2022/05/08 07:25:49;;;;;;;6.60;6.10;;;32.00;55.10;;;32.41;nan;101331.94;4959353;28;20674;-64
2022/05/08 07:28:16;;;;;;;9.80;6.93;;;32.60;53.70;;;31.11;nan;101335.66;4935236;29;20644;-66
2022/05/08 07:30:43;;;;;;;7.13;6.53;;;31.60;53.90;;;31.51;nan;101330.56;4952260;28;20636;-63
2022/05/08 07:33:10;;;;;;;6.20;3.93;;;31.60;53.70;;;31.16;nan;101334.94;4952954;28;20648;-62
2022/05/08 07:38:27;;;;;;;6.13;5.53;;;31.40;54.40;;;31.59;nan;101334.78;4952869;28;20636;-63
2022/05/08 07:40:59;;;;;;;6.90;6.20;;;31.70;52.20;;;32.42;nan;101332.75;4952081;29;20628;-63
2022/05/08 07:43:26;;;;;;;7.27;6.00;;;32.10;52.50;;;32.62;nan;101330.53;4933166;29;20667;-63
2022/05/08 07:45:53;;;;;;;7.80;6.27;;;32.40;52.00;;;33.37;nan;101339.34;4966475;23;20733;-65
2022/05/08 07:48:20;;;;;;;7.50;6.63;;;33.50;50.10;;;33.51;nan;101336.13;4968997;28;24477;-66
2022/05/08 07:50:47;;;;;;;7.20;6.50;;;33.60;49.70;;;34.15;nan;101334.75;4969090;28;20669;-63
2022/05/08 07:53:20;;;;;;;7.40;6.70;;;34.40;48.70;;;33.96;nan;101343.34;4969068;28;20619;-65
2022/05/08 07:55:51;;;;;;;7.17;6.57;;;34.20;47.90;;;34.52;nan;101340.44;4968663;28;21005;-66
2022/05/08 07:58:22;;;;;;;6.03;5.57;;;34.80;47.50;;;35.22;nan;101345.09;4957279;28;20672;-65
2022/05/08 08:00:53;;;;;;;6.90;6.40;;;35.10;47.30;;;34.46;nan;101340.59;4939531;28;20637;-66
2022/05/08 08:03:30;;;;;;;6.90;6.40;;;35.10;46.50;;;34.13;nan;101338.75;4946143;29;20632;-66
2022/05/08 08:05:58;;;;;;;6.40;5.80;;;34.30;47.40;;;33.47;nan;101340.34;4925912;29;20728;-67
2022/05/08 08:08:35;;;;;;;6.47;5.97;;;33.60;47.70;;;33.86;nan;101335.84;4911265;29;20640;-66
2022/05/08 08:11:04;;;;;;;5.80;5.40;;;34.20;47.00;;;34.43;nan;101349.22;4941281;28;20758;-66
2022/05/08 08:13:34;;;;;;;6.90;6.20;;;34.70;46.80;;;34.64;nan;101343.84;4952800;28;20624;-66
2022/05/08 08:16:02;;;;;;;7.20;5.87;;;34.80;46.70;;;35.04;nan;101351.66;4951116;28;20656;-66
2022/05/08 08:18:30;;;;;;;5.03;4.50;;;35.20;46.20;;;35.30;nan;101356.28;4946445;29;20621;-67
2022/05/08 08:20:57;;;;;;;6.87;5.47;;;35.80;45.30;;;35.77;nan;101361.91;4940526;29;20643;-69
2022/05/08 08:23:26;;;;;;;6.57;6.07;;;35.80;45.40;;;34.87;nan;101356.31;4918765;29;20645;-67
2022/05/08 08:25:56;;;;;;;6.40;5.77;;;35.00;44.70;;;33.56;nan;101346.22;4928879;29;20647;-70
2022/05/08 08:28:26;;;;;;;5.60;5.20;;;33.70;46.60;;;32.10;nan;101348.50;4949893;28;20631;-67
2022/05/08 08:30:53;;;;;;;7.90;6.17;;;32.00;48.40;;;30.86;nan;101347.59;4945702;29;20652;-66
2022/05/08 08:33:22;;;;;;;6.30;5.80;;;30.80;50.20;;;30.96;nan;101343.31;4932888;29;20987;-64
2022/05/08 08:35:49;;;;;;;5.83;5.33;;;30.60;51.10;;;32.25;nan;101339.91;4932828;28;20708;-65
2022/05/08 08:38:15;;;;;;;6.40;5.27;;;32.00;49.80;;;34.30;nan;101348.50;4935027;29;21093;-66
2022/05/08 08:40:49;;;;;;;5.30;4.90;;;34.10;47.60;;;36.23;nan;101354.94;4937343;29;20640;-64
2022/05/08 08:43:17;;;;;;;5.37;4.97;;;36.20;45.10;;;36.45;nan;101345.63;4936714;28;20637;-64
2022/05/08 08:48:34;;;;;;;5.27;4.80;;;38.00;43.00;;;38.26;nan;101352.50;4936474;28;20628;-64
2022/05/08 08:51:02;;;;;;;5.93;5.10;;;38.80;41.70;;;38.63;nan;101355.69;4936792;29;20651;-61
2022/05/08 08:53:30;;;;;;;5.23;4.80;;;38.90;41.40;;;39.95;nan;101356.50;4936070;28;20641;-64
2022/05/08 08:55:59;;;;;;;7.20;4.37;;;40.20;40.40;;;40.69;nan;101354.09;4936745;29;20655;-65
2022/05/08 08:58:26;;;;;;;4.50;4.17;;;40.90;39.50;;;41.72;nan;101358.66;4936234;28;20997;-65
2022/05/08 09:00:54;;;;;;;4.80;4.40;;;42.00;38.80;;;41.29;nan;101347.00;4936856;29;20628;-65
2022/05/08 09:03:29;;;;;;;5.50;5.10;;;41.80;38.30;;;41.83;nan;101351.06;4935991;28;21198;-65
2022/05/08 09:06:02;;;;;;;5.37;5.07;;;42.00;38.10;;;42.18;nan;101345.75;4936589;29;20624;-65
2022/05/08 09:08:36;;;;;;;4.90;4.53;;;42.20;38.00;;;42.26;nan;101353.28;4936998;29;20629;-65
2022/05/08 09:11:08;;;;;;;4.47;4.17;;;42.40;37.80;;;42.90;nan;101356.94;4920849;29;20628;-64
2022/05/08 09:13:50;;;;;;;4.67;4.47;;;43.00;37.10;;;43.48;nan;101366.03;4917853;28;20641;-65
2022/05/08 09:16:17;;;;;;;4.33;4.13;;;43.80;36.50;;;43.21;nan;101355.13;4949506;28;20685;-64
2022/05/08 09:18:45;;;;;;;4.83;4.43;;;43.60;36.40;;;42.88;nan;101350.94;4971118;28;20670;-61
2022/05/08 09:24:11;;;;;;;5.43;5.03;;;43.60;36.50;;;41.18;nan;101352.88;4920926;29;21169;-64
2022/05/08 09:26:40;;;;;;;5.03;4.73;;;42.10;36.40;;;42.91;nan;101345.66;4935938;28;20674;-65
2022/05/08 09:29:07;;;;;;;3.73;3.53;;;42.90;36.50;;;42.87;nan;101352.06;4930758;28;20635;-66
2022/05/08 09:31:41;;;;;;;5.13;4.73;;;43.50;36.10;;;42.39;nan;101346.97;4961987;28;20646;-66
2022/05/08 09:34:14;;;;;;;5.03;4.73;;;43.00;36.20;;;43.50;nan;101349.22;4953530;28;20640;-64
2022/05/08 09:36:41;;;;;;;4.50;4.20;;;43.40;36.10;;;43.39;nan;101348.66;4932546;29;21102;-65
2022/05/08 09:39:08;;;;;;;5.47;5.07;;;43.50;35.80;;;42.46;nan;101346.59;4918249;29;20685;-65
2022/05/08 09:41:42;;;;;;;5.20;4.90;;;42.70;36.50;;;42.72;nan;101341.41;4934346;28;20637;-67
2022/05/08 09:44:09;;;;;;;5.20;4.80;;;42.90;36.30;;;41.75;nan;101338.84;4935798;29;21054;-65
2022/05/08 09:46:38;;;;;;;5.23;4.93;;;42.60;36.40;;;41.97;nan;101344.50;4946003;28;20696;-66
2022/05/08 09:49:09;;;;;;;4.70;4.40;;;42.10;36.00;;;43.39;nan;101340.41;4944022;28;20632;-66
2022/05/08 09:51:37;;;;;;;4.70;4.50;;;43.40;35.70;;;43.48;nan;101341.31;4944092;29;20632;-65
2022/05/08 09:54:04;;;;;;;6.27;4.73;;;43.60;35.40;;;44.26;nan;101343.38;4931757;29;20640;-63
2022/05/08 09:56:32;;;;;;;4.97;4.60;;;44.40;35.20;;;45.06;nan;101340.19;4947609;29;20667;-65
2022/05/08 09:59:00;;;;;;;5.23;4.87;;;45.20;34.70;;;44.93;nan;101338.41;4954454;29;21113;-67
2022/05/08 10:01:27;;;;;;;5.20;4.80;;;45.40;34.50;;;45.00;nan;101324.94;4951428;28;20644;-65
2022/05/08 10:03:55;;;;;;;5.60;4.77;;;45.20;34.80;;;44.18;nan;101335.91;4921950;29;21015;-65
2022/05/08 10:06:23;;;;;;;5.33;5.00;;;44.50;35.10;;;43.20;nan;101328.78;4942501;28;20668;-65
2022/05/08 10:08:52;;;;;;;5.30;4.90;;;43.80;35.20;;;42.47;nan;101324.34;4925599;28;20643;-66
2022/05/08 10:14:07;;;;;;;5.30;4.80;;;42.00;36.00;;;41.27;nan;101312.81;4931912;29;20641;-65
2022/05/08 10:17:08;;;;;;;5.57;5.07;;;41.50;36.70;;;39.97;nan;101313.31;4931041;29;21100;-66
2022/05/08 10:19:34;;;;;;;4.77;4.47;;;40.20;38.00;;;38.49;nan;101310.97;4927420;29;21131;-66
2022/05/08 10:22:03;;;;;;;6.53;5.70;;;38.30;38.90;;;36.42;nan;101309.97;4955072;28;20636;-65
2022/05/08 10:24:38;;;;;;;5.40;5.00;;;36.30;40.70;;;35.30;nan;101302.03;4946219;28;20637;-63
2022/05/08 10:27:31;;;;;;;6.10;5.60;;;34.90;41.90;;;33.09;nan;101302.31;4917294;29;20664;-65
2022/05/08 10:29:58;;;;;;;5.80;5.40;;;32.60;44.00;;;31.26;nan;101284.81;4939930;28;20645;-66
2022/05/08 10:32:31;;;;;;;5.40;5.00;;;30.80;46.10;;;30.30;nan;101291.19;4934899;29;20621;-65
2022/05/08 10:35:23;;;;;;;5.80;5.33;;;29.70;47.80;;;29.85;nan;101294.13;4934596;29;20660;-67
2022/05/08 10:38:03;;;;;;;6.03;5.53;;;29.20;48.80;;;29.25;nan;101292.06;4955599;28;20689;-65
2022/05/08 10:40:32;;;;;;;6.23;5.63;;;28.60;49.30;;;28.78;nan;101284.41;4966801;28;20643;-67
2022/05/08 10:43:26;;;;;;;6.50;5.90;;;28.10;49.30;;;28.05;nan;101282.94;4954180;29;20612;-65
2022/05/08 10:45:53;;;;;;;5.87;5.27;;;27.40;50.70;;;27.88;nan;101276.31;4947466;28;20702;-66
2022/05/08 10:48:21;;;;;;;6.40;5.00;;;27.20;51.90;;;27.68;nan;101277.16;4940485;28;20687;-64
2022/05/08 10:50:56;;;;;;;5.80;5.20;;;27.00;51.70;;;27.40;nan;101284.56;4940054;28;21374;-65
2022/05/08 10:53:29;;;;;;;6.10;5.30;;;26.70;53.10;;;26.88;nan;101271.00;4937667;28;21184;-62
2022/05/08 10:56:10;;;;;;;4.20;3.90;;;26.40;53.40;;;26.89;nan;101278.03;4934745;29;21091;-65
2022/05/08 10:58:53;;;;;;;5.63;4.87;;;26.20;52.70;;;26.91;nan;101270.63;4934094;28;20680;-65
2022/05/08 11:01:20;;;;;;;5.50;5.00;;;26.30;52.40;;;26.35;nan;101266.41;4934024;29;20680;-65
2022/05/08 11:03:47;;;;;;;5.37;4.97;;;25.80;52.50;;;26.20;nan;101269.22;4916989;29;20641;-67
2022/05/08 11:06:21;;;;;;;5.50;5.00;;;25.70;53.40;;;25.86;nan;101267.31;4934689;29;20649;-65
2022/05/08 11:08:48;;;;;;;4.70;4.30;;;25.30;53.90;;;25.81;nan;101266.25;4949571;28;20636;-65